createdAt,value
2018-09-06T00:01:18.920Z,16.19
2018-09-06T00:03:46.204Z,16.16
2018-09-06T00:06:13.492Z,16.14
2018-09-06T00:08:40.756Z,16.08
2018-09-06T00:11:08.040Z,16.04
2018-09-06T00:13:35.297Z,15.90
2018-09-06T00:16:02.582Z,15.89
2018-09-06T00:21:35.931Z,16.06
2018-09-06T00:24:03.316Z,16.17
2018-09-06T00:26:30.610Z,16.19
2018-09-06T00:28:57.856Z,16.19
2018-09-06T00:31:25.132Z,16.12
2018-09-06T00:33:52.396Z,16.18
2018-09-06T00:36:19.671Z,16.19
2018-09-06T00:38:46.929Z,16.17
2018-09-06T00:41:14.202Z,16.21
2018-09-06T00:43:41.436Z,16.22
2018-09-06T00:46:08.781Z,16.20
2018-09-06T00:48:36.208Z,16.25
2018-09-06T00:51:03.571Z,16.31
2018-09-06T00:53:30.824Z,16.36
2018-09-06T00:55:58.153Z,16.38
2018-09-06T00:58:26.139Z,16.37
2018-09-06T01:00:53.637Z,16.41
2018-09-06T01:03:21.013Z,16.41
2018-09-06T01:05:48.329Z,16.36
2018-09-06T01:08:15.583Z,16.34
2018-09-06T01:10:42.854Z,16.26
2018-09-06T01:13:10.095Z,16.22
2018-09-06T01:15:37.363Z,16.12
2018-09-06T01:18:04.775Z,16.05
2018-09-06T01:20:32.052Z,15.96
2018-09-06T01:22:59.430Z,15.88
2018-09-06T01:25:31.303Z,15.77
2018-09-06T01:27:58.562Z,15.68
2018-09-06T01:30:25.825Z,15.58
2018-09-06T01:32:53.055Z,15.49
2018-09-06T01:35:20.286Z,15.41
2018-09-06T01:37:47.539Z,15.37
2018-09-06T01:40:14.802Z,15.35
2018-09-06T01:42:42.078Z,15.26
2018-09-06T01:45:09.315Z,15.20
2018-09-06T01:47:36.637Z,15.16
2018-09-06T01:50:03.919Z,15.13
2018-09-06T01:52:31.342Z,15.13
2018-09-06T01:54:58.603Z,15.14
2018-09-06T01:57:25.890Z,15.15
2018-09-06T01:59:53.128Z,15.16
2018-09-06T02:02:20.402Z,15.17
2018-09-06T02:04:47.658Z,15.16
2018-09-06T02:07:14.971Z,15.15
2018-09-06T02:09:42.230Z,15.12
2018-09-06T02:12:09.536Z,15.06
2018-09-06T02:14:36.811Z,14.97
2018-09-06T02:17:04.467Z,14.87
2018-09-06T02:19:33.938Z,14.75
2018-09-06T02:22:01.231Z,14.65
2018-09-06T02:24:28.511Z,14.42
2018-09-06T02:26:55.779Z,14.40
2018-09-06T02:29:23.354Z,14.38
2018-09-06T02:31:50.639Z,14.41
2018-09-06T02:34:17.899Z,14.46
2018-09-06T02:36:45.184Z,14.43
2018-09-06T02:39:12.476Z,14.40
2018-09-06T02:41:39.790Z,14.37
2018-09-06T02:44:07.591Z,14.33
2018-09-06T02:46:35.087Z,14.28
2018-09-06T02:49:02.352Z,14.25
2018-09-06T02:51:29.606Z,14.10
2018-09-06T02:53:56.904Z,14.01
2018-09-06T02:56:24.187Z,14.02
2018-09-06T02:58:51.458Z,14.05
2018-09-06T03:01:18.701Z,14.04
2018-09-06T03:03:45.994Z,14.03
2018-09-06T03:06:13.336Z,14.06
2018-09-06T03:08:40.606Z,14.00
2018-09-06T03:11:12.610Z,13.95
2018-09-06T03:13:39.894Z,13.92
2018-09-06T03:16:07.199Z,13.92
2018-09-06T03:18:34.555Z,13.88
2018-09-06T03:21:10.014Z,13.89
2018-09-06T03:23:38.380Z,13.85
2018-09-06T03:26:12.506Z,13.80
2018-09-06T03:28:39.795Z,13.77
2018-09-06T03:31:07.073Z,13.67
2018-09-06T03:33:34.346Z,13.61
2018-09-06T03:36:01.708Z,13.59
2018-09-06T03:38:28.953Z,13.61
2018-09-06T03:40:56.174Z,13.66
2018-09-06T03:43:23.502Z,13.71
2018-09-06T03:45:50.746Z,13.71
2018-09-06T03:48:18.024Z,13.73
2018-09-06T03:50:45.266Z,13.78
2018-09-06T03:53:12.544Z,13.81
2018-09-06T03:55:39.815Z,13.82
2018-09-06T03:58:07.181Z,13.75
2018-09-06T04:00:34.424Z,13.71
2018-09-06T04:03:01.709Z,13.70
2018-09-06T04:05:28.975Z,13.70
2018-09-06T04:07:56.291Z,13.67
2018-09-06T04:10:23.539Z,13.67
2018-09-06T04:12:50.820Z,13.67
2018-09-06T04:15:18.119Z,13.68
2018-09-06T04:17:45.435Z,13.69
2018-09-06T04:20:12.778Z,13.67
2018-09-06T04:22:46.658Z,13.67
2018-09-06T04:25:13.976Z,13.67
2018-09-06T04:27:41.371Z,13.68
2018-09-06T04:30:09.045Z,13.71
2018-09-06T04:32:36.442Z,13.71
2018-09-06T04:35:04.092Z,13.65
2018-09-06T04:37:31.826Z,13.59
2018-09-06T04:39:59.831Z,13.56
2018-09-06T04:42:28.003Z,13.54
2018-09-06T04:44:55.377Z,13.57
2018-09-06T04:47:22.971Z,13.53
2018-09-06T04:49:50.366Z,13.49
2018-09-06T04:52:18.030Z,13.49
2018-09-06T04:54:46.516Z,13.52
2018-09-06T04:57:13.870Z,13.56
2018-09-06T04:59:41.396Z,13.60
2018-09-06T05:02:08.785Z,13.61
2018-09-06T05:04:36.173Z,13.66
2018-09-06T05:07:03.676Z,13.71
2018-09-06T05:09:31.064Z,13.70
2018-09-06T05:11:58.410Z,13.73
2018-09-06T05:14:26.590Z,13.79
2018-09-06T05:16:53.912Z,13.92
2018-09-06T05:19:21.395Z,14.02
2018-09-06T05:21:49.272Z,14.14
2018-09-06T05:24:16.668Z,14.24
2018-09-06T05:26:44.044Z,14.38
2018-09-06T05:29:13.526Z,14.50
2018-09-06T05:31:40.986Z,14.70
2018-09-06T05:34:08.402Z,14.86
2018-09-06T05:36:35.892Z,15.02
2018-09-06T05:39:03.409Z,15.16
2018-09-06T05:41:30.817Z,15.33
2018-09-06T05:43:58.203Z,15.50
2018-09-06T05:46:25.924Z,15.71
2018-09-06T05:48:53.422Z,15.91
2018-09-06T05:51:21.573Z,16.14
2018-09-06T05:53:49.080Z,16.38
2018-09-06T05:56:16.532Z,16.53
2018-09-06T05:58:43.916Z,16.56
2018-09-06T06:01:12.026Z,16.64
2018-09-06T06:03:39.628Z,16.64
2018-09-06T06:06:07.320Z,16.72
2018-09-06T06:08:46.087Z,16.91
2018-09-06T06:11:13.610Z,17.14
2018-09-06T06:13:41.216Z,17.26
2018-09-06T06:16:09.184Z,17.36
2018-09-06T06:18:36.584Z,17.41
2018-09-06T06:21:04.019Z,17.36
2018-09-06T06:23:31.408Z,17.26
2018-09-06T06:26:00.482Z,17.17
2018-09-06T06:28:28.018Z,17.17
2018-09-06T06:30:55.906Z,17.15
2018-09-06T06:33:23.289Z,17.01
2018-09-06T06:35:50.667Z,17.00
2018-09-06T06:38:18.020Z,17.04
2018-09-06T06:40:45.457Z,17.12
2018-09-06T06:43:12.940Z,17.21
2018-09-06T06:45:41.629Z,17.36
2018-09-06T06:48:08.984Z,17.50
2018-09-06T06:50:37.256Z,17.61
2018-09-06T06:53:05.377Z,17.76
2018-09-06T06:55:32.782Z,17.96
2018-09-06T06:58:00.176Z,18.06
2018-09-06T07:00:27.633Z,18.00
2018-09-06T07:02:54.972Z,18.34
2018-09-06T07:05:22.356Z,18.64
2018-09-06T07:07:50.095Z,19.07
2018-09-06T07:10:17.555Z,19.24
2018-09-06T07:12:44.930Z,19.21
2018-09-06T07:15:12.656Z,19.29
2018-09-06T07:17:40.047Z,19.52
2018-09-06T07:20:07.737Z,19.91
2018-09-06T07:22:35.317Z,20.28
2018-09-06T07:25:04.372Z,20.50
2018-09-06T07:27:32.439Z,20.31
2018-09-06T07:30:00.095Z,20.43
2018-09-06T07:32:27.529Z,20.26
2018-09-06T07:34:54.804Z,20.14
2018-09-06T07:37:22.176Z,20.68
2018-09-06T07:39:49.568Z,21.09
2018-09-06T07:42:17.034Z,21.61
2018-09-06T07:44:44.432Z,22.08
2018-09-06T07:47:11.943Z,21.86
2018-09-06T07:49:39.491Z,21.52
2018-09-06T07:52:07.926Z,21.81
2018-09-06T07:54:35.212Z,22.44
2018-09-06T07:57:02.633Z,22.78
2018-09-06T07:59:29.961Z,23.00
2018-09-06T08:01:57.315Z,23.41
2018-09-06T08:04:24.684Z,23.59
2018-09-06T08:06:51.991Z,23.57
2018-09-06T08:09:19.324Z,23.77
2018-09-06T08:11:47.744Z,23.88
2018-09-06T08:14:15.120Z,24.01
2018-09-06T08:16:42.556Z,24.29
2018-09-06T08:19:09.910Z,24.08
2018-09-06T08:21:37.908Z,24.03
2018-09-06T08:24:05.350Z,24.27
2018-09-06T08:26:32.704Z,24.22
2018-09-06T08:29:00.052Z,24.52
2018-09-06T08:31:27.585Z,24.80
2018-09-06T08:33:54.887Z,25.29
2018-09-06T08:36:22.236Z,25.26
2018-09-06T08:38:49.575Z,25.41
2018-09-06T08:41:16.942Z,25.19
2018-09-06T08:43:44.481Z,25.34
2018-09-06T08:46:11.872Z,25.14
2018-09-06T08:48:39.265Z,25.51
2018-09-06T08:51:06.933Z,26.04
2018-09-06T08:53:34.269Z,26.11
2018-09-06T08:56:01.755Z,26.11
2018-09-06T08:58:29.145Z,26.59
2018-09-06T09:01:02.767Z,26.43
2018-09-06T09:03:30.225Z,26.72
2018-09-06T09:05:57.675Z,26.88
2018-09-06T09:08:25.050Z,26.95
2018-09-06T09:10:53.091Z,26.48
2018-09-06T09:13:20.627Z,26.64
2018-09-06T09:15:48.025Z,26.88
2018-09-06T09:18:17.294Z,27.17
2018-09-06T09:20:44.793Z,26.98
2018-09-06T09:23:12.337Z,26.78
2018-09-06T09:25:39.767Z,26.88
2018-09-06T09:28:07.255Z,27.43
2018-09-06T09:30:34.621Z,27.48
2018-09-06T09:33:02.074Z,27.37
2018-09-06T09:35:29.410Z,27.28
2018-09-06T09:37:56.803Z,27.15
2018-09-06T09:40:24.090Z,27.17
2018-09-06T09:42:51.516Z,27.49
2018-09-06T09:45:18.921Z,27.79
2018-09-06T09:47:46.465Z,27.69
2018-09-06T09:52:40.608Z,28.17
2018-09-06T09:55:07.976Z,28.34
2018-09-06T09:57:35.380Z,28.12
2018-09-06T10:00:02.823Z,28.49
2018-09-06T10:02:35.891Z,28.37
2018-09-06T10:05:08.924Z,28.42
2018-09-06T10:07:42.024Z,28.63
2018-09-06T10:10:09.413Z,28.82
2018-09-06T10:12:36.752Z,28.71
2018-09-06T10:15:04.172Z,28.41
2018-09-06T10:17:31.587Z,28.24
2018-09-06T10:19:59.648Z,28.54
2018-09-06T10:22:27.128Z,29.05
2018-09-06T10:24:54.547Z,29.40
2018-09-06T10:27:21.973Z,28.70
2018-09-06T10:29:49.399Z,28.99
2018-09-06T10:32:16.905Z,28.61
2018-09-06T10:34:44.313Z,28.91
2018-09-06T10:37:11.747Z,29.00
2018-09-06T10:39:40.541Z,29.19
2018-09-06T10:42:07.999Z,29.14
2018-09-06T10:44:35.585Z,28.95
2018-09-06T10:47:03.031Z,29.26
2018-09-06T10:49:30.498Z,29.44
2018-09-06T10:51:58.005Z,29.77
2018-09-06T10:54:25.436Z,29.81
2018-09-06T10:56:52.852Z,29.78
2018-09-06T10:59:20.324Z,30.04
2018-09-06T11:01:47.728Z,29.61
2018-09-06T11:04:15.179Z,29.65
2018-09-06T11:06:42.603Z,29.82
2018-09-06T11:09:10.007Z,29.92
2018-09-06T11:11:37.403Z,29.12
2018-09-06T11:14:04.797Z,28.91
2018-09-06T11:16:32.167Z,28.43
2018-09-06T11:19:00.199Z,28.29
2018-09-06T11:21:27.617Z,28.51
2018-09-06T11:23:54.992Z,28.83
2018-09-06T11:26:22.390Z,29.11
2018-09-06T11:28:52.267Z,29.56
2018-09-06T11:31:20.714Z,29.92
2018-09-06T11:33:48.572Z,29.47
2018-09-06T11:36:15.990Z,29.03
2018-09-06T11:38:43.448Z,28.63
2018-09-06T11:41:10.815Z,28.28
2018-09-06T11:43:38.268Z,27.98
2018-09-06T11:46:07.449Z,28.12
2018-09-06T11:48:35.686Z,27.91
2018-09-06T11:51:03.350Z,28.05
2018-09-06T11:53:31.702Z,28.10
2018-09-06T11:55:59.101Z,28.17
2018-09-06T11:58:27.407Z,28.10
2018-09-06T12:00:54.822Z,28.15
2018-09-06T12:03:22.220Z,28.32
2018-09-06T12:05:49.698Z,28.20
2018-09-06T12:08:17.047Z,28.44
2018-09-06T12:10:44.609Z,28.32
2018-09-06T12:13:12.019Z,28.37
2018-09-06T12:15:39.384Z,28.40
2018-09-06T12:18:07.003Z,28.52
2018-09-06T12:20:34.491Z,28.46
2018-09-06T12:23:01.996Z,28.41
2018-09-06T12:25:29.568Z,28.24
2018-09-06T12:27:57.289Z,28.55
2018-09-06T12:30:24.715Z,28.87
2018-09-06T12:32:52.181Z,29.00
2018-09-06T12:35:21.447Z,28.61
2018-09-06T12:37:50.561Z,28.16
2018-09-06T12:40:19.606Z,27.95
2018-09-06T12:42:47.545Z,27.90
2018-09-06T12:45:15.159Z,27.84
2018-09-06T12:47:42.792Z,27.68
2018-09-06T12:50:10.138Z,27.53
2018-09-06T12:52:37.840Z,27.61
2018-09-06T12:55:05.508Z,27.44
2018-09-06T12:57:33.144Z,27.23
2018-09-06T13:00:00.550Z,27.12
2018-09-06T13:02:28.255Z,27.16
2018-09-06T13:04:55.660Z,27.29
2018-09-06T13:07:23.153Z,27.52
2018-09-06T13:09:50.566Z,27.50
2018-09-06T13:12:18.072Z,27.68
2018-09-06T13:14:46.371Z,27.86
2018-09-06T13:17:14.145Z,27.97
2018-09-06T13:19:41.619Z,27.91
2018-09-06T13:22:09.171Z,27.84
2018-09-06T13:24:36.654Z,27.84
2018-09-06T13:27:04.269Z,27.78
2018-09-06T13:29:32.356Z,27.71
2018-09-06T13:32:00.043Z,27.73
2018-09-06T13:34:27.490Z,27.79
2018-09-06T13:36:55.660Z,28.10
2018-09-06T13:39:24.047Z,28.12
2018-09-06T13:41:51.559Z,28.02
2018-09-06T13:44:18.916Z,28.00
2018-09-06T13:46:46.343Z,27.85
2018-09-06T13:49:13.703Z,27.98
2018-09-06T13:51:42.052Z,28.00
2018-09-06T13:54:09.459Z,27.64
2018-09-06T13:56:36.898Z,27.70
2018-09-06T13:59:05.079Z,27.66
2018-09-06T14:01:32.860Z,27.51
2018-09-06T14:04:00.588Z,27.48
2018-09-06T14:06:27.991Z,27.50
2018-09-06T14:08:55.502Z,27.51
2018-09-06T14:11:23.586Z,27.63
2018-09-06T14:13:50.918Z,27.57
2018-09-06T14:16:18.326Z,27.69
2018-09-06T14:18:46.638Z,27.84
2018-09-06T14:21:14.666Z,27.89
2018-09-06T14:23:42.074Z,28.00
2018-09-06T14:26:09.597Z,28.05
2018-09-06T14:28:37.022Z,27.76
2018-09-06T14:31:05.143Z,27.55
2018-09-06T14:33:32.478Z,27.60
2018-09-06T14:36:00.392Z,27.49
2018-09-06T14:38:27.801Z,27.33
2018-09-06T14:40:55.973Z,27.37
2018-09-06T14:43:23.386Z,27.41
2018-09-06T14:45:50.827Z,27.42
2018-09-06T14:48:18.824Z,27.44
2018-09-06T14:50:46.246Z,27.46
2018-09-06T14:53:13.631Z,27.59
2018-09-06T14:55:41.151Z,27.58
2018-09-06T14:58:08.582Z,27.47
2018-09-06T15:00:36.018Z,27.31
2018-09-06T15:03:03.615Z,27.14
2018-09-06T15:05:31.744Z,27.13
2018-09-06T15:07:59.179Z,27.22
2018-09-06T15:10:26.620Z,27.13
2018-09-06T15:12:54.049Z,26.96
2018-09-06T15:15:21.419Z,26.94
2018-09-06T15:17:48.802Z,26.99
2018-09-06T15:20:16.185Z,27.04
2018-09-06T15:22:43.578Z,26.92
2018-09-06T15:25:10.972Z,26.80
2018-09-06T15:27:38.535Z,26.89
2018-09-06T15:30:06.595Z,26.95
2018-09-06T15:32:33.991Z,26.97
2018-09-06T15:35:01.337Z,26.94
2018-09-06T15:37:28.742Z,26.87
2018-09-06T15:39:56.165Z,26.84
2018-09-06T15:42:23.606Z,26.75
2018-09-06T15:44:51.984Z,26.62
2018-09-06T15:47:20.272Z,26.50
2018-09-06T15:49:47.716Z,26.39
2018-09-06T15:52:15.574Z,26.37
2018-09-06T15:54:42.952Z,26.32
2018-09-06T15:57:10.387Z,26.32
2018-09-06T15:59:38.296Z,26.23
2018-09-06T16:02:06.388Z,26.08
2018-09-06T16:04:33.818Z,26.05
2018-09-06T16:07:01.307Z,25.92
2018-09-06T16:09:28.772Z,25.75
2018-09-06T16:11:56.126Z,25.79
2018-09-06T16:14:23.505Z,25.76
2018-09-06T16:16:50.896Z,25.77
2018-09-06T16:19:18.256Z,25.79
2018-09-06T16:21:45.684Z,25.72
2018-09-06T16:24:22.418Z,25.69
2018-09-06T16:26:59.268Z,25.67
2018-09-06T16:29:26.781Z,25.62
2018-09-06T16:31:54.150Z,25.53
2018-09-06T16:34:22.327Z,25.15
2018-09-06T16:36:49.646Z,24.08
2018-09-06T16:39:17.047Z,23.10
2018-09-06T16:41:44.451Z,22.32
2018-09-06T16:44:11.848Z,21.74
2018-09-06T16:46:39.832Z,21.18
2018-09-06T16:49:07.308Z,20.82
2018-09-06T16:51:34.778Z,20.80
2018-09-06T16:54:02.157Z,20.73
2018-09-06T16:56:29.559Z,20.67
2018-09-06T16:58:57.663Z,20.49
2018-09-06T17:01:25.243Z,20.46
2018-09-06T17:03:53.317Z,20.32
2018-09-06T17:06:20.697Z,20.17
2018-09-06T17:08:48.075Z,20.10
2018-09-06T17:11:16.100Z,20.10
2018-09-06T17:13:43.467Z,20.11
2018-09-06T17:16:11.700Z,20.10
2018-09-06T17:18:39.221Z,20.14
2018-09-06T17:21:07.559Z,20.28
2018-09-06T17:23:35.294Z,20.37
2018-09-06T17:26:02.576Z,20.36
2018-09-06T17:28:30.271Z,20.39
2018-09-06T17:30:58.940Z,20.42
2018-09-06T17:33:27.433Z,20.33
2018-09-06T17:35:55.779Z,20.28
2018-09-06T17:38:23.137Z,20.21
2018-09-06T17:40:50.538Z,20.18
2018-09-06T17:43:20.069Z,20.10
2018-09-06T17:45:48.268Z,20.13
2018-09-06T17:48:15.658Z,20.11
2018-09-06T17:50:43.274Z,20.10
2018-09-06T17:53:11.805Z,20.07
2018-09-06T17:55:39.280Z,20.02
2018-09-06T17:58:06.864Z,19.98
2018-09-06T18:00:36.277Z,19.94
2018-09-06T18:03:03.677Z,20.07
2018-09-06T18:05:42.147Z,20.23
2018-09-06T18:08:10.400Z,20.15
2018-09-06T18:10:38.768Z,20.21
2018-09-06T18:13:06.115Z,20.21
2018-09-06T18:15:33.455Z,20.18
2018-09-06T18:18:00.794Z,20.18
2018-09-06T18:20:28.233Z,20.10
2018-09-06T18:22:56.210Z,19.87
2018-09-06T18:25:23.713Z,19.76
2018-09-06T18:27:51.179Z,19.82
2018-09-06T18:30:18.565Z,19.70
2018-09-06T18:32:46.573Z,19.68
2018-09-06T18:35:13.818Z,19.72
2018-09-06T18:37:41.088Z,19.74
2018-09-06T18:40:08.658Z,19.69
2018-09-06T18:42:36.027Z,19.63
2018-09-06T18:45:03.639Z,19.58
2018-09-06T18:47:31.084Z,19.43
2018-09-06T18:49:58.421Z,19.32
2018-09-06T18:52:25.840Z,19.31
2018-09-06T18:54:53.482Z,19.28
2018-09-06T18:57:20.876Z,19.21
2018-09-06T18:59:48.243Z,19.12
2018-09-06T19:02:15.760Z,19.05
2018-09-06T19:04:43.213Z,19.03
2018-09-06T19:07:10.547Z,19.03
2018-09-06T19:09:37.924Z,19.05
2018-09-06T19:12:05.634Z,19.09
2018-09-06T19:14:33.742Z,19.11
2018-09-06T19:17:01.134Z,19.07
2018-09-06T19:19:29.846Z,19.03
2018-09-06T19:21:57.440Z,19.03
2018-09-06T19:24:24.820Z,19.01
2018-09-06T19:26:52.131Z,19.03
2018-09-06T19:29:19.536Z,19.02
2018-09-06T19:31:47.172Z,18.97
2018-09-06T19:34:15.096Z,18.93
2018-09-06T19:36:42.607Z,18.85
2018-09-06T19:39:11.868Z,18.65
2018-09-06T19:41:39.824Z,18.62
2018-09-06T19:44:07.987Z,18.63
2018-09-06T19:46:35.426Z,18.61
2018-09-06T19:49:02.879Z,18.56
2018-09-06T19:51:30.581Z,18.52
2018-09-06T19:53:58.293Z,18.51
2018-09-06T19:56:25.604Z,18.51
2018-09-06T19:58:52.923Z,18.49
2018-09-06T20:01:20.397Z,18.48
2018-09-06T20:03:47.860Z,18.49
2018-09-06T20:06:16.074Z,18.42
2018-09-06T20:08:43.578Z,18.42
2018-09-06T20:11:11.088Z,18.40
2018-09-06T20:13:38.462Z,18.39
2018-09-06T20:16:06.311Z,18.41
2018-09-06T20:18:33.704Z,18.37
2018-09-06T20:21:01.067Z,18.30
2018-09-06T20:23:28.494Z,18.24
2018-09-06T20:25:55.853Z,18.16
2018-09-06T20:28:23.264Z,18.07
2018-09-06T20:30:50.595Z,18.10
2018-09-06T20:33:17.876Z,18.07
2018-09-06T20:35:45.201Z,17.99
2018-09-06T20:38:12.547Z,17.97
2018-09-06T20:40:41.715Z,17.92
2018-09-06T20:43:09.006Z,17.92
2018-09-06T20:45:36.383Z,17.88
2018-09-06T20:48:03.673Z,17.89
2018-09-06T20:50:30.987Z,17.91
2018-09-06T20:52:58.272Z,17.93
2018-09-06T20:55:26.544Z,17.97
2018-09-06T20:57:53.773Z,17.93
2018-09-06T21:00:21.266Z,17.91
2018-09-06T21:02:48.503Z,17.82
2018-09-06T21:05:15.834Z,17.78
2018-09-06T21:07:43.079Z,17.84
2018-09-06T21:10:10.360Z,17.84
2018-09-06T21:12:37.620Z,17.78
2018-09-06T21:15:04.893Z,17.73
2018-09-06T21:17:32.158Z,17.76
2018-09-06T21:19:59.429Z,17.78
2018-09-06T21:22:26.772Z,17.78
2018-09-06T21:24:54.046Z,17.80
2018-09-06T21:27:21.313Z,17.79
2018-09-06T21:29:48.583Z,17.83
2018-09-06T21:32:15.826Z,17.87
2018-09-06T21:34:43.115Z,17.91
2018-09-06T21:37:10.390Z,17.91
2018-09-06T21:39:37.740Z,17.95
2018-09-06T21:42:05.039Z,18.00
2018-09-06T21:44:32.298Z,17.99
2018-09-06T21:46:59.526Z,18.05
2018-09-06T21:49:26.779Z,18.09
2018-09-06T21:51:54.106Z,18.14
2018-09-06T21:54:21.359Z,18.21
2018-09-06T21:56:48.656Z,18.24
2018-09-06T21:59:15.906Z,18.24
2018-09-06T22:01:43.189Z,18.23
2018-09-06T22:04:10.443Z,18.22
2018-09-06T22:06:38.431Z,18.16
2018-09-06T22:09:09.755Z,18.13
2018-09-06T22:11:37.036Z,18.13
2018-09-06T22:14:04.436Z,18.13
2018-09-06T22:16:31.706Z,18.09
2018-09-06T22:18:58.926Z,18.06
2018-09-06T22:21:26.190Z,18.05
2018-09-06T22:23:53.416Z,18.02
2018-09-06T22:26:20.854Z,17.99
2018-09-06T22:28:48.087Z,17.93
2018-09-06T22:31:15.359Z,17.86
2018-09-06T22:33:42.598Z,17.84
2018-09-06T22:36:11.589Z,17.81
2018-09-06T22:38:38.839Z,17.84
2018-09-06T22:41:06.227Z,17.84
2018-09-06T22:43:33.467Z,17.78
2018-09-06T22:46:01.232Z,17.73
2018-09-06T22:48:28.567Z,17.71
2018-09-06T22:50:55.892Z,17.70
2018-09-06T22:53:23.124Z,17.70
2018-09-06T22:55:50.409Z,17.70
2018-09-06T22:58:17.682Z,17.70
2018-09-06T23:00:44.964Z,17.70
2018-09-06T23:03:17.767Z,17.70
2018-09-06T23:05:45.036Z,17.73
2018-09-06T23:08:12.266Z,17.70
2018-09-06T23:10:39.564Z,17.73
2018-09-06T23:13:06.822Z,17.73
2018-09-06T23:15:34.078Z,17.73
2018-09-06T23:18:01.386Z,17.73
2018-09-06T23:20:28.696Z,17.72
2018-09-06T23:22:55.957Z,17.69
2018-09-06T23:25:23.220Z,17.65
2018-09-06T23:27:50.501Z,17.63
2018-09-06T23:30:17.762Z,17.60
2018-09-06T23:32:45.032Z,17.53
2018-09-06T23:35:12.275Z,17.51
2018-09-06T23:37:39.548Z,17.51
2018-09-06T23:40:06.842Z,17.41
2018-09-06T23:42:34.171Z,17.35
2018-09-06T23:45:01.495Z,17.19
2018-09-06T23:47:28.847Z,17.13
2018-09-06T23:49:56.138Z,17.13
2018-09-06T23:52:23.416Z,17.08
2018-09-06T23:54:50.687Z,17.05
2018-09-06T23:57:17.957Z,17.08
2018-09-06T23:59:45.231Z,17.12
